sensor_id;sensor_type;location;lat;lon;timestamp;P1;durP1;ratioP1;P2;durP2;ratioP2
48789;SDS011;41718;51.980;5.734;2024-03-25T00:00:36;12.93;;;2.53;;
48789;SDS011;41718;51.980;5.734;2024-03-25T00:05:39;6.68;;;3.13;;
48789;SDS011;41718;51.980;5.734;2024-03-25T00:10:40;9.45;;;3.05;;
48789;SDS011;41718;51.980;5.734;2024-03-25T00:15:41;8.13;;;2.65;;
48789;SDS011;41718;51.980;5.734;2024-03-25T00:20:44;9.07;;;2.45;;
48789;SDS011;41718;51.980;5.734;2024-03-25T00:25:45;6.72;;;2.20;;
48789;SDS011;41718;51.980;5.734;2024-03-25T00:30:46;11.55;;;2.80;;
48789;SDS011;41718;51.980;5.734;2024-03-25T00:35:47;8.68;;;2.15;;
48789;SDS011;41718;51.980;5.734;2024-03-25T00:40:49;10.18;;;2.40;;
48789;SDS011;41718;51.980;5.734;2024-03-25T00:45:51;6.35;;;2.20;;
48789;SDS011;41718;51.980;5.734;2024-03-25T00:50:52;6.18;;;2.38;;
48789;SDS011;41718;51.980;5.734;2024-03-25T00:55:53;11.40;;;3.00;;
48789;SDS011;41718;51.980;5.734;2024-03-25T01:00:54;7.70;;;2.42;;
48789;SDS011;41718;51.980;5.734;2024-03-25T01:05:56;7.78;;;2.53;;
48789;SDS011;41718;51.980;5.734;2024-03-25T01:10:57;11.65;;;2.50;;
48789;SDS011;41718;51.980;5.734;2024-03-25T01:15:58;9.00;;;3.83;;
48789;SDS011;41718;51.980;5.734;2024-03-25T01:20:59;8.85;;;2.88;;
48789;SDS011;41718;51.980;5.734;2024-03-25T01:26:00;9.10;;;3.08;;
48789;SDS011;41718;51.980;5.734;2024-03-25T01:31:01;19.45;;;3.63;;
48789;SDS011;41718;51.980;5.734;2024-03-25T01:36:02;13.18;;;4.57;;
48789;SDS011;41718;51.980;5.734;2024-03-25T01:41:07;7.72;;;3.10;;
48789;SDS011;41718;51.980;5.734;2024-03-25T01:46:12;9.10;;;3.22;;
48789;SDS011;41718;51.980;5.734;2024-03-25T01:51:14;14.93;;;3.97;;
48789;SDS011;41718;51.980;5.734;2024-03-25T01:56:18;17.08;;;3.13;;
48789;SDS011;41718;51.980;5.734;2024-03-25T02:01:20;6.80;;;2.13;;
48789;SDS011;41718;51.980;5.734;2024-03-25T02:06:22;4.70;;;2.38;;
48789;SDS011;41718;51.980;5.734;2024-03-25T02:11:27;13.88;;;2.78;;
48789;SDS011;41718;51.980;5.734;2024-03-25T02:16:28;23.42;;;3.67;;
48789;SDS011;41718;51.980;5.734;2024-03-25T02:21:29;9.55;;;2.28;;
48789;SDS011;41718;51.980;5.734;2024-03-25T02:26:31;6.57;;;3.40;;
48789;SDS011;41718;51.980;5.734;2024-03-25T02:31:32;11.30;;;3.42;;
48789;SDS011;41718;51.980;5.734;2024-03-25T02:36:33;13.38;;;2.80;;
48789;SDS011;41718;51.980;5.734;2024-03-25T02:41:34;8.20;;;2.67;;
48789;SDS011;41718;51.980;5.734;2024-03-25T02:46:38;12.00;;;2.50;;
48789;SDS011;41718;51.980;5.734;2024-03-25T02:51:41;4.95;;;2.63;;
48789;SDS011;41718;51.980;5.734;2024-03-25T02:56:44;9.45;;;3.60;;
48789;SDS011;41718;51.980;5.734;2024-03-25T03:01:45;5.72;;;3.03;;
48789;SDS011;41718;51.980;5.734;2024-03-25T03:06:46;9.20;;;3.45;;
48789;SDS011;41718;51.980;5.734;2024-03-25T03:11:47;16.30;;;2.47;;
48789;SDS011;41718;51.980;5.734;2024-03-25T03:16:48;14.38;;;3.05;;
48789;SDS011;41718;51.980;5.734;2024-03-25T03:21:49;12.45;;;3.03;;
48789;SDS011;41718;51.980;5.734;2024-03-25T03:26:50;8.75;;;3.22;;
48789;SDS011;41718;51.980;5.734;2024-03-25T03:31:51;9.70;;;2.80;;
48789;SDS011;41718;51.980;5.734;2024-03-25T03:36:52;17.23;;;3.70;;
48789;SDS011;41718;51.980;5.734;2024-03-25T03:41:53;6.28;;;2.78;;
48789;SDS011;41718;51.980;5.734;2024-03-25T03:46:54;14.95;;;3.45;;
48789;SDS011;41718;51.980;5.734;2024-03-25T03:51:55;8.57;;;3.15;;
48789;SDS011;41718;51.980;5.734;2024-03-25T03:56:57;8.43;;;2.95;;
48789;SDS011;41718;51.980;5.734;2024-03-25T04:01:58;8.23;;;2.65;;
48789;SDS011;41718;51.980;5.734;2024-03-25T04:06:59;11.20;;;3.00;;
48789;SDS011;41718;51.980;5.734;2024-03-25T04:12:02;11.65;;;2.58;;
48789;SDS011;41718;51.980;5.734;2024-03-25T04:17:03;10.98;;;3.13;;
48789;SDS011;41718;51.980;5.734;2024-03-25T04:22:05;9.07;;;2.38;;
48789;SDS011;41718;51.980;5.734;2024-03-25T04:27:07;9.27;;;2.70;;
48789;SDS011;41718;51.980;5.734;2024-03-25T04:32:08;7.38;;;2.30;;
48789;SDS011;41718;51.980;5.734;2024-03-25T04:37:09;3.83;;;2.17;;
48789;SDS011;41718;51.980;5.734;2024-03-25T04:42:10;5.57;;;3.15;;
48789;SDS011;41718;51.980;5.734;2024-03-25T04:47:11;7.68;;;2.22;;
48789;SDS011;41718;51.980;5.734;2024-03-25T04:52:12;8.40;;;3.65;;
48789;SDS011;41718;51.980;5.734;2024-03-25T04:57:15;8.13;;;3.30;;
48789;SDS011;41718;51.980;5.734;2024-03-25T05:02:16;12.35;;;3.20;;
48789;SDS011;41718;51.980;5.734;2024-03-25T05:07:17;12.07;;;4.50;;
48789;SDS011;41718;51.980;5.734;2024-03-25T05:12:19;10.70;;;3.28;;
48789;SDS011;41718;51.980;5.734;2024-03-25T05:17:20;7.28;;;3.03;;
48789;SDS011;41718;51.980;5.734;2024-03-25T05:22:20;8.65;;;3.67;;
48789;SDS011;41718;51.980;5.734;2024-03-25T05:27:21;13.23;;;3.42;;
48789;SDS011;41718;51.980;5.734;2024-03-25T05:32:22;12.02;;;4.82;;
48789;SDS011;41718;51.980;5.734;2024-03-25T05:37:23;10.60;;;4.13;;
48789;SDS011;41718;51.980;5.734;2024-03-25T05:42:24;10.48;;;4.75;;
48789;SDS011;41718;51.980;5.734;2024-03-25T05:47:25;6.68;;;3.42;;
48789;SDS011;41718;51.980;5.734;2024-03-25T05:52:28;9.88;;;4.45;;
48789;SDS011;41718;51.980;5.734;2024-03-25T05:57:29;12.82;;;5.72;;
48789;SDS011;41718;51.980;5.734;2024-03-25T06:02:31;13.10;;;3.67;;
48789;SDS011;41718;51.980;5.734;2024-03-25T06:07:32;12.23;;;3.28;;
48789;SDS011;41718;51.980;5.734;2024-03-25T06:12:33;7.03;;;4.45;;
48789;SDS011;41718;51.980;5.734;2024-03-25T06:17:34;11.07;;;5.00;;
48789;SDS011;41718;51.980;5.734;2024-03-25T06:22:35;13.65;;;4.78;;
48789;SDS011;41718;51.980;5.734;2024-03-25T06:27:36;16.40;;;5.47;;
48789;SDS011;41718;51.980;5.734;2024-03-25T06:32:37;18.27;;;6.32;;
48789;SDS011;41718;51.980;5.734;2024-03-25T06:37:56;12.93;;;4.78;;
48789;SDS011;41718;51.980;5.734;2024-03-25T06:42:57;16.65;;;4.70;;
48789;SDS011;41718;51.980;5.734;2024-03-25T06:47:58;11.15;;;4.93;;
48789;SDS011;41718;51.980;5.734;2024-03-25T06:52:59;20.45;;;6.00;;
48789;SDS011;41718;51.980;5.734;2024-03-25T06:58:00;16.35;;;4.95;;
48789;SDS011;41718;51.980;5.734;2024-03-25T07:03:01;18.75;;;6.65;;
48789;SDS011;41718;51.980;5.734;2024-03-25T07:08:02;15.48;;;5.18;;
48789;SDS011;41718;51.980;5.734;2024-03-25T07:13:03;19.75;;;6.30;;
48789;SDS011;41718;51.980;5.734;2024-03-25T07:18:05;20.23;;;6.15;;
48789;SDS011;41718;51.980;5.734;2024-03-25T07:23:07;22.83;;;7.47;;
48789;SDS011;41718;51.980;5.734;2024-03-25T07:28:08;18.95;;;6.55;;
48789;SDS011;41718;51.980;5.734;2024-03-25T07:33:09;26.27;;;6.20;;
48789;SDS011;41718;51.980;5.734;2024-03-25T07:38:10;20.77;;;6.75;;
48789;SDS011;41718;51.980;5.734;2024-03-25T07:43:11;24.67;;;7.30;;
48789;SDS011;41718;51.980;5.734;2024-03-25T07:48:12;25.90;;;7.07;;
48789;SDS011;41718;51.980;5.734;2024-03-25T07:53:13;23.08;;;8.23;;
48789;SDS011;41718;51.980;5.734;2024-03-25T07:58:14;19.17;;;7.85;;
48789;SDS011;41718;51.980;5.734;2024-03-25T08:03:15;21.20;;;7.28;;
48789;SDS011;41718;51.980;5.734;2024-03-25T08:08:16;21.63;;;6.47;;
48789;SDS011;41718;51.980;5.734;2024-03-25T08:13:17;26.27;;;7.80;;
48789;SDS011;41718;51.980;5.734;2024-03-25T08:18:18;19.52;;;6.35;;
48789;SDS011;41718;51.980;5.734;2024-03-25T08:23:19;18.55;;;7.63;;
48789;SDS011;41718;51.980;5.734;2024-03-25T08:28:20;22.90;;;7.30;;
48789;SDS011;41718;51.980;5.734;2024-03-25T08:33:21;19.85;;;6.80;;
48789;SDS011;41718;51.980;5.734;2024-03-25T08:38:22;15.32;;;5.80;;
48789;SDS011;41718;51.980;5.734;2024-03-25T08:43:22;16.48;;;6.80;;
48789;SDS011;41718;51.980;5.734;2024-03-25T08:48:24;16.73;;;5.55;;
48789;SDS011;41718;51.980;5.734;2024-03-25T08:53:25;14.63;;;5.43;;
48789;SDS011;41718;51.980;5.734;2024-03-25T08:58:25;22.23;;;6.05;;
48789;SDS011;41718;51.980;5.734;2024-03-25T09:03:26;22.48;;;8.82;;
48789;SDS011;41718;51.980;5.734;2024-03-25T09:08:29;11.68;;;5.68;;
48789;SDS011;41718;51.980;5.734;2024-03-25T09:13:37;16.10;;;3.65;;
48789;SDS011;41718;51.980;5.734;2024-03-25T09:18:38;17.13;;;5.40;;
48789;SDS011;41718;51.980;5.734;2024-03-25T09:23:38;8.98;;;4.05;;
48789;SDS011;41718;51.980;5.734;2024-03-25T09:28:39;14.85;;;5.40;;
48789;SDS011;41718;51.980;5.734;2024-03-25T09:33:41;11.65;;;4.65;;
48789;SDS011;41718;51.980;5.734;2024-03-25T09:38:42;21.55;;;5.10;;
48789;SDS011;41718;51.980;5.734;2024-03-25T09:43:43;13.40;;;4.22;;
48789;SDS011;41718;51.980;5.734;2024-03-25T09:48:47;14.23;;;5.28;;
48789;SDS011;41718;51.980;5.734;2024-03-25T09:53:52;14.48;;;5.40;;
48789;SDS011;41718;51.980;5.734;2024-03-25T09:58:53;8.70;;;3.83;;
48789;SDS011;41718;51.980;5.734;2024-03-25T10:03:55;6.00;;;3.00;;
48789;SDS011;41718;51.980;5.734;2024-03-25T10:08:57;6.85;;;4.30;;
48789;SDS011;41718;51.980;5.734;2024-03-25T10:13:58;10.85;;;4.18;;
48789;SDS011;41718;51.980;5.734;2024-03-25T10:18:59;7.43;;;3.55;;
48789;SDS011;41718;51.980;5.734;2024-03-25T10:24:00;14.80;;;6.07;;
48789;SDS011;41718;51.980;5.734;2024-03-25T10:29:02;13.20;;;5.93;;
48789;SDS011;41718;51.980;5.734;2024-03-25T10:34:06;12.15;;;4.57;;
48789;SDS011;41718;51.980;5.734;2024-03-25T10:39:07;13.75;;;4.82;;
48789;SDS011;41718;51.980;5.734;2024-03-25T10:44:10;10.80;;;3.58;;
48789;SDS011;41718;51.980;5.734;2024-03-25T10:49:21;10.32;;;3.33;;
48789;SDS011;41718;51.980;5.734;2024-03-25T10:54:43;12.27;;;4.18;;
48789;SDS011;41718;51.980;5.734;2024-03-25T10:59:47;8.20;;;3.40;;
48789;SDS011;41718;51.980;5.734;2024-03-25T11:04:49;9.35;;;4.82;;
48789;SDS011;41718;51.980;5.734;2024-03-25T11:09:52;8.13;;;3.63;;
48789;SDS011;41718;51.980;5.734;2024-03-25T11:15:07;11.90;;;3.80;;
48789;SDS011;41718;51.980;5.734;2024-03-25T11:20:09;10.05;;;3.50;;
48789;SDS011;41718;51.980;5.734;2024-03-25T11:25:12;7.18;;;3.55;;
48789;SDS011;41718;51.980;5.734;2024-03-25T11:30:15;9.35;;;4.15;;
48789;SDS011;41718;51.980;5.734;2024-03-25T11:35:16;5.72;;;3.55;;
48789;SDS011;41718;51.980;5.734;2024-03-25T11:40:17;10.85;;;4.47;;
48789;SDS011;41718;51.980;5.734;2024-03-25T11:45:20;9.38;;;4.70;;
48789;SDS011;41718;51.980;5.734;2024-03-25T11:50:21;5.47;;;3.38;;
48789;SDS011;41718;51.980;5.734;2024-03-25T11:55:22;7.55;;;2.53;;
48789;SDS011;41718;51.980;5.734;2024-03-25T12:00:26;9.07;;;4.65;;
48789;SDS011;41718;51.980;5.734;2024-03-25T12:05:27;5.90;;;3.33;;
48789;SDS011;41718;51.980;5.734;2024-03-25T12:10:28;9.18;;;2.97;;
48789;SDS011;41718;51.980;5.734;2024-03-25T12:15:48;4.50;;;2.33;;
48789;SDS011;41718;51.980;5.734;2024-03-25T12:20:49;6.45;;;3.15;;
48789;SDS011;41718;51.980;5.734;2024-03-25T12:25:52;7.35;;;3.17;;
48789;SDS011;41718;51.980;5.734;2024-03-25T12:30:53;5.57;;;3.78;;
48789;SDS011;41718;51.980;5.734;2024-03-25T12:35:56;5.78;;;3.28;;
48789;SDS011;41718;51.980;5.734;2024-03-25T12:41:07;8.38;;;3.42;;
48789;SDS011;41718;51.980;5.734;2024-03-25T12:46:11;7.35;;;4.22;;
48789;SDS011;41718;51.980;5.734;2024-03-25T12:51:13;4.38;;;3.13;;
48789;SDS011;41718;51.980;5.734;2024-03-25T12:56:15;6.05;;;3.10;;
48789;SDS011;41718;51.980;5.734;2024-03-25T13:01:16;5.95;;;2.45;;
48789;SDS011;41718;51.980;5.734;2024-03-25T13:06:18;5.38;;;2.78;;
48789;SDS011;41718;51.980;5.734;2024-03-25T13:11:19;5.22;;;3.20;;
48789;SDS011;41718;51.980;5.734;2024-03-25T13:16:20;4.72;;;2.53;;
48789;SDS011;41718;51.980;5.734;2024-03-25T13:21:21;4.82;;;2.92;;
48789;SDS011;41718;51.980;5.734;2024-03-25T13:26:22;4.20;;;2.70;;
48789;SDS011;41718;51.980;5.734;2024-03-25T13:31:25;5.15;;;3.08;;
48789;SDS011;41718;51.980;5.734;2024-03-25T13:37:00;4.13;;;1.98;;
48789;SDS011;41718;51.980;5.734;2024-03-25T13:42:16;5.43;;;3.07;;
48789;SDS011;41718;51.980;5.734;2024-03-25T13:47:30;3.80;;;2.78;;
48789;SDS011;41718;51.980;5.734;2024-03-25T13:52:35;7.85;;;2.80;;
48789;SDS011;41718;51.980;5.734;2024-03-25T13:57:52;4.97;;;2.75;;
48789;SDS011;41718;51.980;5.734;2024-03-25T14:03:04;4.82;;;2.60;;
48789;SDS011;41718;51.980;5.734;2024-03-25T14:08:06;9.05;;;3.28;;
48789;SDS011;41718;51.980;5.734;2024-03-25T14:13:17;4.90;;;2.13;;
48789;SDS011;41718;51.980;5.734;2024-03-25T14:18:30;4.32;;;2.75;;
48789;SDS011;41718;51.980;5.734;2024-03-25T14:23:31;4.88;;;3.40;;
48789;SDS011;41718;51.980;5.734;2024-03-25T14:28:37;32.00;;;14.98;;
48789;SDS011;41718;51.980;5.734;2024-03-25T14:33:38;4.25;;;2.50;;
48789;SDS011;41718;51.980;5.734;2024-03-25T14:38:52;4.50;;;3.78;;
48789;SDS011;41718;51.980;5.734;2024-03-25T14:44:23;5.13;;;2.67;;
48789;SDS011;41718;51.980;5.734;2024-03-25T14:49:25;4.78;;;3.28;;
48789;SDS011;41718;51.980;5.734;2024-03-25T14:55:14;6.13;;;2.88;;
48789;SDS011;41718;51.980;5.734;2024-03-25T15:00:15;5.47;;;2.83;;
48789;SDS011;41718;51.980;5.734;2024-03-25T15:05:16;6.03;;;2.42;;
48789;SDS011;41718;51.980;5.734;2024-03-25T15:10:18;3.92;;;2.35;;
48789;SDS011;41718;51.980;5.734;2024-03-25T15:15:22;2.80;;;1.42;;
48789;SDS011;41718;51.980;5.734;2024-03-25T15:20:26;5.32;;;2.15;;
48789;SDS011;41718;51.980;5.734;2024-03-25T15:25:29;5.80;;;3.35;;
48789;SDS011;41718;51.980;5.734;2024-03-25T15:30:30;6.22;;;3.10;;
48789;SDS011;41718;51.980;5.734;2024-03-25T15:35:31;6.55;;;3.20;;
48789;SDS011;41718;51.980;5.734;2024-03-25T15:40:32;5.53;;;2.97;;
48789;SDS011;41718;51.980;5.734;2024-03-25T15:45:35;6.47;;;2.70;;
48789;SDS011;41718;51.980;5.734;2024-03-25T15:50:36;10.32;;;3.85;;
48789;SDS011;41718;51.980;5.734;2024-03-25T15:55:37;7.65;;;2.92;;
48789;SDS011;41718;51.980;5.734;2024-03-25T16:00:38;7.68;;;3.83;;
48789;SDS011;41718;51.980;5.734;2024-03-25T16:05:39;8.32;;;3.17;;
48789;SDS011;41718;51.980;5.734;2024-03-25T16:10:40;6.18;;;3.67;;
48789;SDS011;41718;51.980;5.734;2024-03-25T16:15:42;6.90;;;3.22;;
48789;SDS011;41718;51.980;5.734;2024-03-25T16:20:43;6.63;;;2.95;;
48789;SDS011;41718;51.980;5.734;2024-03-25T16:25:44;5.55;;;3.25;;
48789;SDS011;41718;51.980;5.734;2024-03-25T16:30:45;7.90;;;3.30;;
48789;SDS011;41718;51.980;5.734;2024-03-25T16:35:47;8.15;;;3.90;;
48789;SDS011;41718;51.980;5.734;2024-03-25T16:40:49;6.57;;;3.55;;
48789;SDS011;41718;51.980;5.734;2024-03-25T16:45:51;6.32;;;3.45;;
48789;SDS011;41718;51.980;5.734;2024-03-25T16:50:52;4.45;;;3.55;;
48789;SDS011;41718;51.980;5.734;2024-03-25T16:55:53;8.38;;;4.10;;
48789;SDS011;41718;51.980;5.734;2024-03-25T17:00:54;8.10;;;3.55;;
48789;SDS011;41718;51.980;5.734;2024-03-25T17:05:55;4.47;;;3.38;;
48789;SDS011;41718;51.980;5.734;2024-03-25T17:10:56;9.35;;;3.85;;
48789;SDS011;41718;51.980;5.734;2024-03-25T17:16:00;9.05;;;5.53;;
48789;SDS011;41718;51.980;5.734;2024-03-25T17:21:01;6.05;;;3.55;;
48789;SDS011;41718;51.980;5.734;2024-03-25T17:26:06;7.90;;;3.25;;
48789;SDS011;41718;51.980;5.734;2024-03-25T17:31:07;7.47;;;3.40;;
48789;SDS011;41718;51.980;5.734;2024-03-25T17:36:11;12.57;;;6.13;;
48789;SDS011;41718;51.980;5.734;2024-03-25T17:41:13;6.63;;;3.22;;
48789;SDS011;41718;51.980;5.734;2024-03-25T17:46:14;5.38;;;2.92;;
48789;SDS011;41718;51.980;5.734;2024-03-25T17:51:15;6.80;;;4.20;;
48789;SDS011;41718;51.980;5.734;2024-03-25T17:56:16;5.95;;;2.92;;
48789;SDS011;41718;51.980;5.734;2024-03-25T18:01:17;6.88;;;2.47;;
48789;SDS011;41718;51.980;5.734;2024-03-25T18:06:18;7.22;;;3.28;;
48789;SDS011;41718;51.980;5.734;2024-03-25T18:11:19;4.00;;;1.50;;
48789;SDS011;41718;51.980;5.734;2024-03-25T18:16:20;6.55;;;3.45;;
48789;SDS011;41718;51.980;5.734;2024-03-25T18:21:21;4.30;;;2.70;;
48789;SDS011;41718;51.980;5.734;2024-03-25T18:26:22;4.88;;;2.90;;
48789;SDS011;41718;51.980;5.734;2024-03-25T18:31:24;5.63;;;2.90;;
48789;SDS011;41718;51.980;5.734;2024-03-25T18:36:28;6.13;;;2.53;;
48789;SDS011;41718;51.980;5.734;2024-03-25T18:41:29;7.68;;;2.60;;
48789;SDS011;41718;51.980;5.734;2024-03-25T18:46:30;3.60;;;2.28;;
48789;SDS011;41718;51.980;5.734;2024-03-25T18:51:31;5.90;;;2.70;;
48789;SDS011;41718;51.980;5.734;2024-03-25T18:56:35;10.55;;;3.38;;
48789;SDS011;41718;51.980;5.734;2024-03-25T19:01:36;7.65;;;3.50;;
48789;SDS011;41718;51.980;5.734;2024-03-25T19:06:37;18.90;;;7.15;;
48789;SDS011;41718;51.980;5.734;2024-03-25T19:11:38;9.07;;;6.15;;
48789;SDS011;41718;51.980;5.734;2024-03-25T19:16:39;6.57;;;3.55;;
48789;SDS011;41718;51.980;5.734;2024-03-25T19:21:40;6.95;;;4.85;;
48789;SDS011;41718;51.980;5.734;2024-03-25T19:26:42;8.80;;;5.75;;
48789;SDS011;41718;51.980;5.734;2024-03-25T19:31:43;6.30;;;4.82;;
48789;SDS011;41718;51.980;5.734;2024-03-25T19:36:44;9.38;;;6.13;;
48789;SDS011;41718;51.980;5.734;2024-03-25T19:41:45;11.05;;;8.50;;
48789;SDS011;41718;51.980;5.734;2024-03-25T19:46:46;20.92;;;11.88;;
48789;SDS011;41718;51.980;5.734;2024-03-25T19:51:47;8.70;;;5.22;;
48789;SDS011;41718;51.980;5.734;2024-03-25T19:56:48;8.98;;;4.40;;
48789;SDS011;41718;51.980;5.734;2024-03-25T20:01:49;7.40;;;4.10;;
48789;SDS011;41718;51.980;5.734;2024-03-25T20:06:50;5.38;;;2.92;;
48789;SDS011;41718;51.980;5.734;2024-03-25T20:12:04;7.63;;;3.45;;
48789;SDS011;41718;51.980;5.734;2024-03-25T20:17:12;6.55;;;3.63;;
48789;SDS011;41718;51.980;5.734;2024-03-25T20:22:25;7.40;;;3.40;;
48789;SDS011;41718;51.980;5.734;2024-03-25T20:27:40;8.50;;;4.78;;
48789;SDS011;41718;51.980;5.734;2024-03-25T20:32:43;7.20;;;3.05;;
48789;SDS011;41718;51.980;5.734;2024-03-25T20:37:45;7.28;;;3.33;;
48789;SDS011;41718;51.980;5.734;2024-03-25T20:42:58;5.68;;;3.47;;
48789;SDS011;41718;51.980;5.734;2024-03-25T20:47:59;12.13;;;2.80;;
48789;SDS011;41718;51.980;5.734;2024-03-25T20:53:01;6.22;;;2.80;;
48789;SDS011;41718;51.980;5.734;2024-03-25T20:58:06;4.18;;;2.85;;
48789;SDS011;41718;51.980;5.734;2024-03-25T21:03:18;5.38;;;2.78;;
48789;SDS011;41718;51.980;5.734;2024-03-25T21:08:23;4.47;;;3.08;;
48789;SDS011;41718;51.980;5.734;2024-03-25T21:13:25;8.88;;;3.13;;
48789;SDS011;41718;51.980;5.734;2024-03-25T21:18:47;5.25;;;2.40;;
48789;SDS011;41718;51.980;5.734;2024-03-25T21:23:51;4.93;;;3.50;;
48789;SDS011;41718;51.980;5.734;2024-03-25T21:28:55;6.20;;;3.13;;
48789;SDS011;41718;51.980;5.734;2024-03-25T21:34:00;3.00;;;2.75;;
48789;SDS011;41718;51.980;5.734;2024-03-25T21:39:05;4.10;;;2.17;;
48789;SDS011;41718;51.980;5.734;2024-03-25T21:44:13;5.68;;;3.85;;
48789;SDS011;41718;51.980;5.734;2024-03-25T21:49:18;3.63;;;2.90;;
48789;SDS011;41718;51.980;5.734;2024-03-25T21:54:26;3.80;;;3.10;;
48789;SDS011;41718;51.980;5.734;2024-03-25T21:59:34;8.73;;;2.85;;
48789;SDS011;41718;51.980;5.734;2024-03-25T22:04:51;5.75;;;3.70;;
48789;SDS011;41718;51.980;5.734;2024-03-25T22:10:06;4.85;;;2.92;;
48789;SDS011;41718;51.980;5.734;2024-03-25T22:15:14;5.20;;;2.55;;
48789;SDS011;41718;51.980;5.734;2024-03-25T22:20:18;7.38;;;2.83;;
48789;SDS011;41718;51.980;5.734;2024-03-25T22:25:20;3.38;;;2.65;;
48789;SDS011;41718;51.980;5.734;2024-03-25T22:30:22;3.35;;;2.00;;
48789;SDS011;41718;51.980;5.734;2024-03-25T22:35:25;4.53;;;3.63;;
48789;SDS011;41718;51.980;5.734;2024-03-25T22:40:27;7.53;;;3.03;;
48789;SDS011;41718;51.980;5.734;2024-03-25T22:45:31;6.85;;;2.95;;
48789;SDS011;41718;51.980;5.734;2024-03-25T22:50:34;6.40;;;3.55;;
48789;SDS011;41718;51.980;5.734;2024-03-25T22:55:35;5.72;;;3.00;;
48789;SDS011;41718;51.980;5.734;2024-03-25T23:00:40;4.88;;;2.58;;
48789;SDS011;41718;51.980;5.734;2024-03-25T23:05:44;6.18;;;2.60;;
48789;SDS011;41718;51.980;5.734;2024-03-25T23:10:55;4.80;;;2.70;;
48789;SDS011;41718;51.980;5.734;2024-03-25T23:16:00;3.80;;;1.90;;
48789;SDS011;41718;51.980;5.734;2024-03-25T23:21:03;7.88;;;2.92;;
48789;SDS011;41718;51.980;5.734;2024-03-25T23:26:20;6.57;;;2.67;;
48789;SDS011;41718;51.980;5.734;2024-03-25T23:31:24;7.47;;;3.03;;
48789;SDS011;41718;51.980;5.734;2024-03-25T23:36:28;6.25;;;3.15;;
48789;SDS011;41718;51.980;5.734;2024-03-25T23:41:31;8.88;;;3.08;;
48789;SDS011;41718;51.980;5.734;2024-03-25T23:46:33;5.32;;;2.40;;
48789;SDS011;41718;51.980;5.734;2024-03-25T23:51:41;4.32;;;2.30;;
48789;SDS011;41718;51.980;5.734;2024-03-25T23:56:42;4.93;;;3.40;;
